createdAt,value
2018-08-16T00:01:18.850Z,2.87
2018-08-16T00:03:48.148Z,3.00
2018-08-16T00:06:18.002Z,2.77
2018-08-16T00:08:47.379Z,2.47
2018-08-16T00:11:16.702Z,2.30
2018-08-16T00:13:46.578Z,2.40
2018-08-16T00:16:15.751Z,2.40
2018-08-16T00:18:45.074Z,2.60
2018-08-16T00:21:14.468Z,2.30
2018-08-16T00:23:43.867Z,2.40
2018-08-16T00:26:13.565Z,2.00
2018-08-16T00:28:43.010Z,2.20
2018-08-16T00:31:12.549Z,2.37
2018-08-16T00:33:42.280Z,2.10
2018-08-16T00:36:11.640Z,2.23
2018-08-16T00:38:41.052Z,2.50
2018-08-16T00:41:10.418Z,2.50
2018-08-16T00:43:40.101Z,2.27
2018-08-16T00:46:09.414Z,2.60
2018-08-16T00:48:38.774Z,2.40
2018-08-16T00:51:08.358Z,3.00
2018-08-16T00:53:37.444Z,2.70
2018-08-16T00:56:07.112Z,2.40
2018-08-16T00:58:36.757Z,2.43
2018-08-16T01:01:06.954Z,2.77
2018-08-16T01:03:36.381Z,2.57
2018-08-16T01:06:06.257Z,2.40
2018-08-16T01:08:35.403Z,2.50
2018-08-16T01:11:04.605Z,2.40
2018-08-16T01:13:33.974Z,2.70
2018-08-16T01:16:03.220Z,2.70
2018-08-16T01:18:32.625Z,2.50
2018-08-16T01:21:02.278Z,2.90
2018-08-16T01:23:31.420Z,2.87
2018-08-16T01:26:00.581Z,2.80
2018-08-16T01:28:30.251Z,3.00
2018-08-16T01:30:59.532Z,3.00
2018-08-16T01:33:28.968Z,3.27
2018-08-16T01:35:58.598Z,2.70
2018-08-16T01:38:28.544Z,3.37
2018-08-16T01:40:58.062Z,3.00
2018-08-16T01:43:28.364Z,3.13
2018-08-16T01:45:57.932Z,3.27
2018-08-16T01:48:27.558Z,3.20
2018-08-16T01:50:57.502Z,3.70
2018-08-16T01:53:27.619Z,3.90
2018-08-16T01:55:57.346Z,3.57
2018-08-16T01:58:27.295Z,3.50
2018-08-16T02:00:56.552Z,3.67
2018-08-16T02:03:26.177Z,3.57
2018-08-16T02:05:56.214Z,3.73
2018-08-16T02:08:26.645Z,3.60
2018-08-16T02:10:56.170Z,3.13
2018-08-16T02:13:25.982Z,3.50
2018-08-16T02:15:56.024Z,3.70
2018-08-16T02:18:25.714Z,3.80
2018-08-16T02:20:55.382Z,4.13
2018-08-16T02:23:25.163Z,4.07
2018-08-16T02:25:55.259Z,3.87
2018-08-16T02:28:24.822Z,3.80
2018-08-16T02:30:54.413Z,4.10
2018-08-16T02:33:23.884Z,3.90
2018-08-16T02:35:53.187Z,4.00
2018-08-16T02:38:23.048Z,4.07
2018-08-16T02:40:52.240Z,4.37
2018-08-16T02:43:21.533Z,4.30
2018-08-16T02:45:50.761Z,4.40
2018-08-16T02:48:20.024Z,4.13
2018-08-16T02:50:49.789Z,4.50
2018-08-16T02:53:19.486Z,4.80
2018-08-16T02:55:48.755Z,4.60
2018-08-16T02:58:18.451Z,4.50
2018-08-16T03:00:47.943Z,5.17
2018-08-16T03:03:17.228Z,4.83
2018-08-16T03:05:46.654Z,4.70
2018-08-16T03:08:15.774Z,4.70
2018-08-16T03:10:45.263Z,5.17
2018-08-16T03:13:14.917Z,5.13
2018-08-16T03:15:44.172Z,5.57
2018-08-16T03:18:13.281Z,5.10
2018-08-16T03:20:42.938Z,5.10
2018-08-16T03:23:12.190Z,5.50
2018-08-16T03:25:41.839Z,5.33
2018-08-16T03:28:11.233Z,5.63
2018-08-16T03:30:40.350Z,5.80
2018-08-16T03:33:10.216Z,6.07
2018-08-16T03:35:39.736Z,5.70
2018-08-16T03:38:08.856Z,6.00
2018-08-16T03:40:38.527Z,5.63
2018-08-16T03:43:08.486Z,5.40
2018-08-16T03:45:38.054Z,5.60
2018-08-16T03:48:07.405Z,6.20
2018-08-16T03:50:36.797Z,5.40
2018-08-16T03:53:06.297Z,5.53
2018-08-16T03:55:35.573Z,5.60
2018-08-16T03:58:05.451Z,5.67
2018-08-16T04:00:34.680Z,5.37
2018-08-16T04:03:04.574Z,5.70
2018-08-16T04:05:34.023Z,5.63
2018-08-16T04:08:03.771Z,5.80
2018-08-16T04:10:33.346Z,5.70
2018-08-16T04:13:03.767Z,6.03
2018-08-16T04:15:32.989Z,5.30
2018-08-16T04:18:02.049Z,6.20
2018-08-16T04:20:31.742Z,5.87
2018-08-16T04:23:00.937Z,6.27
2018-08-16T04:25:30.424Z,5.83
2018-08-16T04:27:59.844Z,5.80
2018-08-16T04:30:29.135Z,6.20
2018-08-16T04:32:58.537Z,6.17
2018-08-16T04:35:28.755Z,5.73
2018-08-16T04:37:58.282Z,6.23
2018-08-16T04:40:27.772Z,5.47
2018-08-16T04:42:57.791Z,5.70
2018-08-16T04:45:28.040Z,5.70
2018-08-16T04:47:57.391Z,5.70
2018-08-16T04:50:27.702Z,6.10
2018-08-16T04:52:57.376Z,5.50
2018-08-16T04:55:27.142Z,6.20
2018-08-16T04:57:56.962Z,6.03
2018-08-16T05:00:26.401Z,5.43
2018-08-16T05:02:55.819Z,5.70
2018-08-16T05:05:26.237Z,5.43
2018-08-16T05:07:55.705Z,6.00
2018-08-16T05:10:26.285Z,5.80
2018-08-16T05:12:56.357Z,5.97
2018-08-16T05:15:25.702Z,5.67
2018-08-16T05:17:55.088Z,6.17
2018-08-16T05:20:24.493Z,5.60
2018-08-16T05:22:53.813Z,5.53
2018-08-16T05:25:22.982Z,6.00
2018-08-16T05:27:52.617Z,5.63
2018-08-16T05:30:22.006Z,5.50
2018-08-16T05:32:51.299Z,6.10
2018-08-16T05:35:21.742Z,5.40
2018-08-16T05:37:50.877Z,5.70
2018-08-16T05:40:20.027Z,5.60
2018-08-16T05:42:49.595Z,6.00
2018-08-16T05:45:19.165Z,6.23
2018-08-16T05:47:48.313Z,6.60
2018-08-16T05:50:18.026Z,6.80
2018-08-16T05:52:47.340Z,6.33
2018-08-16T05:55:16.548Z,6.50
2018-08-16T05:57:45.904Z,6.57
2018-08-16T06:00:15.567Z,7.00
2018-08-16T06:02:44.892Z,6.97
2018-08-16T06:05:14.405Z,6.63
2018-08-16T06:07:43.676Z,6.70
2018-08-16T06:10:12.943Z,7.63
2018-08-16T06:12:42.347Z,6.60
2018-08-16T06:15:11.656Z,6.40
2018-08-16T06:17:40.937Z,7.10
2018-08-16T06:20:11.844Z,5.50
2018-08-16T06:22:41.389Z,7.10
2018-08-16T06:25:12.810Z,6.53
2018-08-16T06:27:42.458Z,5.93
2018-08-16T06:30:14.837Z,6.27
2018-08-16T06:32:44.840Z,6.47
2018-08-16T06:35:14.150Z,6.33
2018-08-16T06:37:43.565Z,6.50
2018-08-16T06:40:17.300Z,6.73
2018-08-16T06:42:47.576Z,6.07
2018-08-16T06:45:16.881Z,7.03
2018-08-16T06:47:46.796Z,7.13
2018-08-16T06:50:16.001Z,6.20
2018-08-16T06:52:45.248Z,7.00
2018-08-16T06:55:14.492Z,6.10
2018-08-16T06:57:43.854Z,7.07
2018-08-16T07:00:13.346Z,7.43
2018-08-16T07:02:42.694Z,6.53
2018-08-16T07:05:12.230Z,6.97
2018-08-16T07:07:41.393Z,6.57
2018-08-16T07:10:13.322Z,6.60
2018-08-16T07:12:42.419Z,7.40
2018-08-16T07:15:14.235Z,7.40
2018-08-16T07:17:44.129Z,6.73
2018-08-16T07:20:13.694Z,6.90
2018-08-16T07:22:43.076Z,7.20
2018-08-16T07:25:12.487Z,6.90
2018-08-16T07:27:41.658Z,6.90
2018-08-16T07:30:11.324Z,7.17
2018-08-16T07:32:40.763Z,10.63
2018-08-16T07:35:10.735Z,7.53
2018-08-16T07:37:40.005Z,7.33
2018-08-16T07:40:10.234Z,7.50
2018-08-16T07:42:39.445Z,8.40
2018-08-16T07:45:11.643Z,7.87
2018-08-16T07:47:41.245Z,8.37
2018-08-16T07:50:20.002Z,7.87
2018-08-16T07:52:49.441Z,9.17
2018-08-16T07:55:19.043Z,7.93
2018-08-16T07:57:48.286Z,9.77
2018-08-16T08:00:19.121Z,8.53
2018-08-16T08:02:48.273Z,8.20
2018-08-16T08:05:17.828Z,8.63
2018-08-16T08:07:47.454Z,8.57
2018-08-16T08:10:16.951Z,7.97
2018-08-16T08:12:46.094Z,11.10
2018-08-16T08:15:16.195Z,8.00
2018-08-16T08:17:45.613Z,8.63
2018-08-16T08:20:16.470Z,8.77
2018-08-16T08:22:46.039Z,8.57
2018-08-16T08:25:15.700Z,8.43
2018-08-16T08:27:44.966Z,8.90
2018-08-16T08:30:17.824Z,8.90
2018-08-16T08:32:47.345Z,9.30
2018-08-16T08:35:16.701Z,8.07
2018-08-16T08:37:57.161Z,9.13
2018-08-16T08:40:26.621Z,9.00
2018-08-16T08:42:56.131Z,9.27
2018-08-16T08:45:25.987Z,9.40
2018-08-16T08:47:58.371Z,9.20
2018-08-16T08:50:28.902Z,8.97
2018-08-16T08:55:11.214Z,8.83
2018-08-16T08:57:51.467Z,10.23
2018-08-16T09:00:21.740Z,10.33
2018-08-16T09:02:51.391Z,10.23
2018-08-16T09:05:21.389Z,11.37
2018-08-16T09:07:50.763Z,9.77
2018-08-16T09:10:57.282Z,10.17
2018-08-16T09:13:37.970Z,9.67
2018-08-16T09:16:17.632Z,9.43
2018-08-16T09:18:47.062Z,9.67
2018-08-16T09:21:17.230Z,9.20
2018-08-16T09:23:46.619Z,9.87
2018-08-16T09:26:20.930Z,9.27
2018-08-16T09:28:50.534Z,9.20
2018-08-16T09:31:30.498Z,9.40
2018-08-16T09:34:14.679Z,9.67
2018-08-16T09:36:44.066Z,11.07
2018-08-16T09:39:13.476Z,11.17
2018-08-16T09:41:43.008Z,11.13
2018-08-16T09:44:12.405Z,11.33
2018-08-16T09:46:54.715Z,10.73
2018-08-16T09:49:23.964Z,11.43
2018-08-16T09:51:53.236Z,11.17
2018-08-16T09:54:22.579Z,11.27
2018-08-16T09:56:52.461Z,12.23
2018-08-16T09:59:22.839Z,11.17
2018-08-16T10:01:52.485Z,12.80
2018-08-16T10:04:22.156Z,11.87
2018-08-16T10:06:51.468Z,12.30
2018-08-16T10:09:28.541Z,50.20
2018-08-16T10:11:58.980Z,11.23
2018-08-16T10:14:28.987Z,10.20
2018-08-16T10:16:58.605Z,10.77
2018-08-16T10:19:28.635Z,10.43
2018-08-16T10:21:58.479Z,11.47
2018-08-16T10:24:27.969Z,13.00
2018-08-16T10:26:57.421Z,13.63
2018-08-16T10:29:27.242Z,14.37
2018-08-16T10:31:56.948Z,15.13
2018-08-16T10:34:26.357Z,15.40
2018-08-16T10:36:56.221Z,16.13
2018-08-16T10:39:25.529Z,15.03
2018-08-16T10:41:55.780Z,14.17
2018-08-16T10:44:25.547Z,11.87
2018-08-16T10:46:54.724Z,13.00
2018-08-16T10:49:23.858Z,11.60
2018-08-16T10:51:53.307Z,11.03
2018-08-16T10:54:22.741Z,11.80
2018-08-16T10:56:51.885Z,10.90
2018-08-16T10:59:21.308Z,9.63
2018-08-16T11:01:51.013Z,9.87
2018-08-16T11:04:20.354Z,10.10
2018-08-16T11:06:49.970Z,8.87
2018-08-16T11:09:19.162Z,8.47
2018-08-16T11:11:48.411Z,9.17
2018-08-16T11:14:17.964Z,8.50
2018-08-16T11:16:47.140Z,9.07
2018-08-16T11:19:16.484Z,9.23
2018-08-16T11:21:45.984Z,8.87
2018-08-16T11:24:15.330Z,8.17
2018-08-16T11:26:44.864Z,7.90
2018-08-16T11:29:14.438Z,7.80
2018-08-16T11:31:43.847Z,7.00
2018-08-16T11:34:13.492Z,7.50
2018-08-16T11:36:43.006Z,8.83
2018-08-16T11:39:12.251Z,9.07
2018-08-16T11:41:41.545Z,13.03
2018-08-16T11:44:10.909Z,7.97
2018-08-16T11:46:40.092Z,8.73
2018-08-16T11:49:09.392Z,8.53
2018-08-16T11:51:38.775Z,8.33
2018-08-16T11:54:08.374Z,8.83
2018-08-16T11:56:37.641Z,9.67
2018-08-16T11:59:07.318Z,8.70
2018-08-16T12:01:36.523Z,9.33
2018-08-16T12:04:05.844Z,10.20
2018-08-16T12:06:35.645Z,9.47
2018-08-16T12:09:07.680Z,10.27
2018-08-16T12:11:36.953Z,11.57
2018-08-16T12:14:06.328Z,11.20
2018-08-16T12:16:35.545Z,11.70
2018-08-16T12:19:04.917Z,11.33
2018-08-16T12:21:34.192Z,11.97
2018-08-16T12:24:04.071Z,10.63
2018-08-16T12:26:33.455Z,11.17
2018-08-16T12:29:02.893Z,11.13
2018-08-16T12:31:33.061Z,10.37
2018-08-16T12:34:03.314Z,11.87
2018-08-16T12:36:32.401Z,11.97
2018-08-16T12:39:01.930Z,12.40
2018-08-16T12:41:31.414Z,12.47
2018-08-16T12:44:00.509Z,11.53
2018-08-16T12:46:30.352Z,11.50
2018-08-16T12:49:00.832Z,11.67
2018-08-16T12:51:30.110Z,11.10
2018-08-16T12:53:59.562Z,11.17
2018-08-16T12:56:29.843Z,10.87
2018-08-16T12:58:59.463Z,11.47
2018-08-16T13:01:29.959Z,11.17
2018-08-16T13:03:59.793Z,13.77
2018-08-16T13:06:29.345Z,14.17
2018-08-16T13:08:59.191Z,14.73
2018-08-16T13:11:29.259Z,15.10
2018-08-16T13:13:59.521Z,16.87
2018-08-16T13:16:29.220Z,17.97
2018-08-16T13:18:59.377Z,18.97
2018-08-16T13:21:28.865Z,17.53
2018-08-16T13:23:59.188Z,17.50
2018-08-16T13:26:28.947Z,16.10
2018-08-16T13:28:58.484Z,19.77
2018-08-16T13:31:28.180Z,19.77
2018-08-16T13:33:57.950Z,19.23
2018-08-16T13:36:27.553Z,21.40
2018-08-16T13:38:57.482Z,22.87
2018-08-16T13:41:27.462Z,20.93
2018-08-16T13:43:56.985Z,22.93
2018-08-16T13:46:26.426Z,22.67
2018-08-16T13:48:56.320Z,21.83
2018-08-16T13:51:25.672Z,24.87
2018-08-16T13:53:55.591Z,23.87
2018-08-16T13:56:27.307Z,25.10
2018-08-16T13:58:57.075Z,25.37
2018-08-16T14:01:26.847Z,24.37
2018-08-16T14:03:56.559Z,23.93
2018-08-16T14:06:25.952Z,25.73
2018-08-16T14:08:55.839Z,26.00
2018-08-16T14:11:25.313Z,26.00
2018-08-16T14:13:54.833Z,27.20
2018-08-16T14:16:25.142Z,27.47
2018-08-16T14:18:54.603Z,27.30
2018-08-16T14:21:23.692Z,27.90
2018-08-16T14:23:53.045Z,27.93
2018-08-16T14:26:22.220Z,26.33
2018-08-16T14:28:51.680Z,26.93
2018-08-16T14:31:21.096Z,26.30
2018-08-16T14:33:50.892Z,27.00
2018-08-16T14:36:21.012Z,25.97
2018-08-16T14:38:50.414Z,26.43
2018-08-16T14:41:19.893Z,26.63
2018-08-16T14:43:49.029Z,25.77
2018-08-16T14:46:18.638Z,26.57
2018-08-16T14:48:47.909Z,26.10
2018-08-16T14:51:17.159Z,25.40
2018-08-16T14:53:46.645Z,27.57
2018-08-16T14:56:16.415Z,26.93
2018-08-16T14:58:45.936Z,27.60
2018-08-16T15:01:15.638Z,28.60
2018-08-16T15:03:44.986Z,28.20
2018-08-16T15:06:14.153Z,26.03
2018-08-16T15:08:43.704Z,28.37
2018-08-16T15:11:12.894Z,29.10
2018-08-16T15:13:41.985Z,27.97
2018-08-16T15:16:11.640Z,26.40
2018-08-16T15:18:40.920Z,26.80
2018-08-16T15:21:10.237Z,27.53
2018-08-16T15:23:41.028Z,26.17
2018-08-16T15:26:10.500Z,27.50
2018-08-16T15:28:39.579Z,29.03
2018-08-16T15:31:09.255Z,28.07
2018-08-16T15:33:38.583Z,28.90
2018-08-16T15:36:08.083Z,29.50
2018-08-16T15:38:37.758Z,29.33
2018-08-16T15:41:05.810Z,27.90
2018-08-16T15:43:37.066Z,30.13
2018-08-16T15:46:06.788Z,28.97
2018-08-16T15:48:36.557Z,27.83
2018-08-16T15:51:05.780Z,29.20
2018-08-16T15:53:35.558Z,27.97
2018-08-16T15:56:05.516Z,28.47
2018-08-16T15:58:34.786Z,26.77
2018-08-16T16:01:04.294Z,28.87
2018-08-16T16:03:33.430Z,27.50
2018-08-16T16:06:03.359Z,28.13
2018-08-16T16:08:32.740Z,27.43
2018-08-16T16:11:02.099Z,28.33
2018-08-16T16:13:31.538Z,27.27
2018-08-16T16:16:01.152Z,26.70
2018-08-16T16:18:30.400Z,27.40
2018-08-16T16:20:59.908Z,27.20
2018-08-16T16:23:30.177Z,27.27
2018-08-16T16:25:59.505Z,27.60
2018-08-16T16:28:28.912Z,27.37
2018-08-16T16:30:58.704Z,28.20
2018-08-16T16:33:28.177Z,28.53
2018-08-16T16:35:57.773Z,27.80
2018-08-16T16:38:27.728Z,26.93
2018-08-16T16:40:57.865Z,28.10
2018-08-16T16:43:27.832Z,28.23
2018-08-16T16:45:57.513Z,26.20
2018-08-16T16:48:26.779Z,27.03
2018-08-16T16:50:57.330Z,25.87
2018-08-16T16:53:27.598Z,26.33
2018-08-16T16:55:56.838Z,25.30
2018-08-16T16:58:26.778Z,25.20
2018-08-16T17:00:56.696Z,24.87
2018-08-16T17:03:26.209Z,26.00
2018-08-16T17:05:55.468Z,26.87
2018-08-16T17:08:25.027Z,24.77
2018-08-16T17:10:54.178Z,23.93
2018-08-16T17:13:23.762Z,23.37
2018-08-16T17:15:53.243Z,23.77
2018-08-16T17:18:22.800Z,22.13
2018-08-16T17:20:52.392Z,22.30
2018-08-16T17:23:22.306Z,21.67
2018-08-16T17:25:51.855Z,21.03
2018-08-16T17:28:21.269Z,20.87
2018-08-16T17:30:50.931Z,21.77
2018-08-16T17:33:20.517Z,20.67
2018-08-16T17:35:49.906Z,21.03
2018-08-16T17:38:19.117Z,21.13
2018-08-16T17:40:48.552Z,20.57
2018-08-16T17:43:18.124Z,20.47
2018-08-16T17:45:47.645Z,19.23
2018-08-16T17:48:18.065Z,17.53
2018-08-16T17:50:49.147Z,16.70
2018-08-16T17:53:18.577Z,14.10
2018-08-16T17:55:47.851Z,11.83
2018-08-16T17:58:17.606Z,10.60
2018-08-16T18:00:47.020Z,8.90
2018-08-16T18:03:16.343Z,11.30
2018-08-16T18:05:46.336Z,7.70
2018-08-16T18:08:15.668Z,7.50
2018-08-16T18:10:45.380Z,7.73
2018-08-16T18:13:15.018Z,7.90
2018-08-16T18:15:44.479Z,8.13
2018-08-16T18:18:13.631Z,9.07
2018-08-16T18:20:43.304Z,8.67
2018-08-16T18:23:12.909Z,8.67
2018-08-16T18:25:42.541Z,9.20
2018-08-16T18:28:12.540Z,9.90
2018-08-16T18:30:41.952Z,9.43
2018-08-16T18:33:11.548Z,10.07
2018-08-16T18:35:41.462Z,9.30
2018-08-16T18:38:11.338Z,9.73
2018-08-16T18:40:40.906Z,9.60
2018-08-16T18:43:10.743Z,9.10
2018-08-16T18:45:40.371Z,9.17
2018-08-16T18:48:09.904Z,8.50
2018-08-16T18:50:40.344Z,8.20
2018-08-16T18:53:10.067Z,7.30
2018-08-16T18:55:39.622Z,7.60
2018-08-16T18:58:09.423Z,7.63
2018-08-16T19:00:39.387Z,7.40
2018-08-16T19:03:09.353Z,6.73
2018-08-16T19:05:39.036Z,6.93
2018-08-16T19:08:09.335Z,7.30
2018-08-16T19:10:38.981Z,7.80
2018-08-16T19:13:08.536Z,7.50
2018-08-16T19:15:38.454Z,8.10
2018-08-16T19:18:08.141Z,7.33
2018-08-16T19:20:37.631Z,7.97
2018-08-16T19:23:07.227Z,7.57
2018-08-16T19:25:36.538Z,7.43
2018-08-16T19:28:05.865Z,7.63
2018-08-16T19:30:35.770Z,7.80
2018-08-16T19:33:05.710Z,7.53
2018-08-16T19:35:35.356Z,7.10
2018-08-16T19:38:05.112Z,6.63
2018-08-16T19:40:34.876Z,6.73
2018-08-16T19:43:04.414Z,7.07
2018-08-16T19:45:34.334Z,6.87
2018-08-16T19:48:04.113Z,7.40
2018-08-16T19:50:33.853Z,7.03
2018-08-16T19:53:03.475Z,7.33
2018-08-16T19:55:33.003Z,6.83
2018-08-16T19:58:02.813Z,7.03
2018-08-16T20:00:32.823Z,6.90
2018-08-16T20:03:02.364Z,6.90
2018-08-16T20:05:31.952Z,6.80
2018-08-16T20:08:01.794Z,6.57
2018-08-16T20:10:31.193Z,6.93
2018-08-16T20:13:00.589Z,6.43
2018-08-16T20:15:30.274Z,6.53
2018-08-16T20:18:00.465Z,6.43
2018-08-16T20:20:30.266Z,6.27
2018-08-16T20:22:59.802Z,6.13
2018-08-16T20:25:29.713Z,5.90
2018-08-16T20:27:59.520Z,6.43
2018-08-16T20:30:29.433Z,6.00
2018-08-16T20:32:59.373Z,6.40
2018-08-16T20:35:29.372Z,6.27
2018-08-16T20:37:59.430Z,5.63
2018-08-16T20:40:29.061Z,5.43
2018-08-16T20:42:58.800Z,5.70
2018-08-16T20:45:28.539Z,6.13
2018-08-16T20:47:58.598Z,5.93
2018-08-16T20:50:28.443Z,5.57
2018-08-16T20:52:58.659Z,5.87
2018-08-16T20:55:28.324Z,5.67
2018-08-16T20:57:58.192Z,5.60
2018-08-16T21:00:28.256Z,6.07
2018-08-16T21:02:58.574Z,5.63
2018-08-16T21:05:28.736Z,5.60
2018-08-16T21:07:58.613Z,5.50
2018-08-16T21:10:28.298Z,5.57
2018-08-16T21:12:58.237Z,5.37
2018-08-16T21:15:28.231Z,4.97
2018-08-16T21:17:57.863Z,5.17
2018-08-16T21:20:27.618Z,5.13
2018-08-16T21:22:57.807Z,4.90
2018-08-16T21:25:27.467Z,4.90
2018-08-16T21:27:57.145Z,4.53
2018-08-16T21:30:27.536Z,4.80
2018-08-16T21:32:57.316Z,4.40
2018-08-16T21:35:27.099Z,4.30
2018-08-16T21:37:57.269Z,4.87
2018-08-16T21:40:26.913Z,5.00
2018-08-16T21:42:56.765Z,4.67
2018-08-16T21:45:26.662Z,4.80
2018-08-16T21:47:56.594Z,4.33
2018-08-16T21:50:26.744Z,4.70
2018-08-16T21:52:56.824Z,4.97
2018-08-16T21:55:33.047Z,6.50
2018-08-16T21:58:02.917Z,4.53
2018-08-16T22:00:53.887Z,4.67
2018-08-16T22:03:24.648Z,5.07
2018-08-16T22:06:02.827Z,4.70
2018-08-16T22:08:41.133Z,5.00
2018-08-16T22:11:10.809Z,4.30
2018-08-16T22:13:40.380Z,4.80
2018-08-16T22:16:10.145Z,4.73
2018-08-16T22:18:39.988Z,5.70
2018-08-16T22:21:09.920Z,5.03
2018-08-16T22:24:42.860Z,4.60
2018-08-16T22:27:12.300Z,5.20
2018-08-16T22:29:41.690Z,5.30
2018-08-16T22:32:11.335Z,5.20
2018-08-16T22:34:40.718Z,4.77
2018-08-16T22:37:10.316Z,5.50
2018-08-16T22:39:40.069Z,5.00
2018-08-16T22:42:09.442Z,5.00
2018-08-16T22:44:38.847Z,5.17
2018-08-16T22:47:08.438Z,4.80
2018-08-16T22:49:38.369Z,5.47
2018-08-16T22:52:07.927Z,5.37
2018-08-16T22:54:37.588Z,5.27
2018-08-16T22:57:07.103Z,5.40
2018-08-16T22:59:36.768Z,5.43
2018-08-16T23:02:06.642Z,5.33
2018-08-16T23:04:35.943Z,5.30
2018-08-16T23:07:06.631Z,6.03
2018-08-16T23:09:37.416Z,5.40
2018-08-16T23:12:07.068Z,5.73
2018-08-16T23:14:36.741Z,5.63
2018-08-16T23:17:06.555Z,5.63
2018-08-16T23:19:35.963Z,5.47
2018-08-16T23:22:05.705Z,5.43
2018-08-16T23:24:35.614Z,5.53
2018-08-16T23:27:05.034Z,6.67
2018-08-16T23:29:34.384Z,6.43
2018-08-16T23:32:05.012Z,6.40
2018-08-16T23:34:34.478Z,6.10
2018-08-16T23:37:04.341Z,6.37
2018-08-16T23:39:34.024Z,6.77
2018-08-16T23:42:03.427Z,6.60
2018-08-16T23:44:33.432Z,6.77
2018-08-16T23:47:03.233Z,6.80
2018-08-16T23:49:32.674Z,6.57
2018-08-16T23:52:02.351Z,6.47
2018-08-16T23:54:32.095Z,7.07
2018-08-16T23:57:01.659Z,3.43
2018-08-16T23:59:31.035Z,3.53
